Time;durP1;ratioP1;P1;durP2;ratioP2;P2;SDS_P1;SDS_P2;PMS_P1;PMS_P2;Temp;Humidity;BMP_temperature;BMP_pressure;BME280_temperature;BME280_humidity;BME280_pressure;Samples;Min_cycle;Max_cycle;Signal;HPM_P1;HPM_P2
2022/09/26 00:01:51;;;;;;;11.97;9.00;;;;;;;10.14;100.00;96420.94;5021828;28;20199;-55
2022/09/26 00:04:22;;;;;;;9.47;8.73;;;;;;;10.22;100.00;96417.25;4972183;28;20212;-59
2022/09/26 00:06:57;;;;;;;10.17;9.37;;;;;;;10.20;100.00;96413.19;5018918;28;20405;-58
2022/09/26 00:09:26;;;;;;;10.00;9.20;;;;;;;10.19;100.00;96408.94;5026738;28;20246;-60
2022/09/26 00:11:55;;;;;;;10.17;9.37;;;;;;;10.17;100.00;96409.13;5003341;28;20231;-62
2022/09/26 00:14:26;;;;;;;9.43;8.70;;;;;;;10.16;100.00;96409.34;5027401;28;20229;-57
2022/09/26 00:16:55;;;;;;;9.87;8.93;;;;;;;10.11;100.00;96413.41;5025672;28;20235;-60
2022/09/26 00:19:23;;;;;;;9.73;8.90;;;;;;;10.11;100.00;96399.34;5025808;28;20265;-57
2022/09/26 00:21:52;;;;;;;11.80;10.57;;;;;;;10.11;100.00;96409.91;4981350;28;20216;-58
2022/09/26 00:24:20;;;;;;;9.23;8.53;;;;;;;10.11;100.00;96412.56;5029112;28;20228;-54
2022/09/26 00:26:48;;;;;;;9.60;8.90;;;;;;;10.14;100.00;96412.16;5006053;28;20214;-59
2022/09/26 00:29:17;;;;;;;9.07;8.27;;;;;;;10.19;100.00;96400.97;5026632;28;20616;-53
2022/09/26 00:31:47;;;;;;;9.53;8.57;;;;;;;10.20;100.00;96403.41;5024251;28;20388;-60
2022/09/26 00:34:18;;;;;;;9.07;8.30;;;;;;;10.21;100.00;96397.09;5024535;28;20739;-57
2022/09/26 00:36:47;;;;;;;9.33;8.57;;;;;;;10.23;100.00;96397.75;4969685;28;20211;-61
2022/09/26 00:39:15;;;;;;;9.30;8.40;;;;;;;10.25;100.00;96394.88;4995252;28;20725;-55
2022/09/26 00:41:44;;;;;;;9.17;8.37;;;;;;;10.24;100.00;96388.78;5004847;28;20218;-55
2022/09/26 00:44:37;;;;;;;8.40;7.60;;;;;;;10.21;100.00;96388.38;5020705;28;20438;-59
2022/09/26 00:47:12;;;;;;;8.17;7.57;;;;;;;10.06;100.00;96370.84;5028184;28;20204;-61
2022/09/26 00:49:43;;;;;;;8.93;8.13;;;;;;;10.10;100.00;96377.34;5031865;28;20288;-62
2022/09/26 00:52:14;;;;;;;9.40;8.70;;;;;;;10.09;100.00;96380.19;4969785;28;20325;-61
2022/09/26 00:54:44;;;;;;;8.73;8.03;;;;;;;10.03;100.00;96384.44;4955498;28;20316;-61
2022/09/26 00:57:17;;;;;;;9.80;9.00;;;;;;;9.94;100.00;96381.19;5020311;28;21082;-59
2022/09/26 00:59:49;;;;;;;10.77;9.67;;;;;;;9.89;100.00;96374.84;5025445;28;20318;-55
2022/09/26 01:02:19;;;;;;;11.03;10.03;;;;;;;9.91;100.00;96380.75;5012538;28;20302;-59
2022/09/26 01:04:48;;;;;;;10.50;9.60;;;;;;;9.94;100.00;96380.34;5008850;28;20282;-58
2022/09/26 01:07:19;;;;;;;10.07;9.27;;;;;;;9.95;100.00;96377.53;5027024;28;20207;-58
2022/09/26 01:09:48;;;;;;;9.37;8.47;;;;;;;9.94;100.00;96373.25;4980145;28;20224;-60
2022/09/26 01:12:17;;;;;;;9.77;8.87;;;;;;;10.02;100.00;96369.56;5024230;28;20291;-61
2022/09/26 01:14:47;;;;;;;9.87;8.87;;;;;;;10.02;100.00;96366.13;5031564;28;20659;-59
2022/09/26 01:18:11;;;;;;;9.63;8.90;;;;;;;10.07;100.00;96369.00;5000422;28;20246;-61
2022/09/26 01:20:50;;;;;;;8.50;7.90;;;;;;;10.08;100.00;96363.50;5016541;28;20258;-60
2022/09/26 01:23:55;;;;;;;8.07;7.47;;;;;;;10.09;100.00;96362.50;4984810;28;20266;-62
2022/09/26 01:26:52;;;;;;;6.93;6.43;;;;;;;10.13;100.00;96371.66;5012250;28;20412;-60
2022/09/26 01:29:54;;;;;;;7.50;6.90;;;;;;;10.19;100.00;96371.88;5028602;28;20208;-62
2022/09/26 01:35:17;;;;;;;7.67;7.07;;;;;;;10.24;100.00;96369.44;5001783;28;20468;-57
2022/09/26 01:37:55;;;;;;;7.47;6.87;;;;;;;10.24;100.00;96364.97;5025934;28;20231;-59
2022/09/26 01:40:31;;;;;;;7.57;6.97;;;;;;;10.21;100.00;96362.69;4980348;28;21043;-60
2022/09/26 01:43:05;;;;;;;7.63;7.03;;;;;;;10.22;100.00;96358.22;5029444;28;20486;-57
2022/09/26 01:45:44;;;;;;;7.10;6.60;;;;;;;10.21;100.00;96367.97;5031952;28;20251;-59
2022/09/26 01:48:17;;;;;;;7.20;6.70;;;;;;;10.18;100.00;96363.09;5014085;28;20247;-60
2022/09/26 01:50:49;;;;;;;12.20;7.47;;;;;;;10.14;100.00;96367.16;5005522;28;20224;-58
2022/09/26 01:53:20;;;;;;;7.03;6.53;;;;;;;10.10;100.00;96358.81;5025752;28;20687;-58
2022/09/26 01:55:53;;;;;;;6.63;6.13;;;;;;;10.10;100.00;96365.94;4976748;28;20314;-60
2022/09/26 01:58:25;;;;;;;7.20;6.57;;;;;;;10.16;100.00;96369.63;5016571;28;20216;-57
2022/09/26 02:00:58;;;;;;;7.30;6.80;;;;;;;10.18;100.00;96364.94;5024411;28;20250;-61
2022/09/26 02:03:28;;;;;;;6.73;6.23;;;;;;;10.19;100.00;96366.56;5006511;28;20223;-61
2022/09/26 02:05:59;;;;;;;7.30;6.80;;;;;;;10.19;100.00;96364.72;5001650;28;20228;-57
2022/09/26 02:08:31;;;;;;;7.33;6.83;;;;;;;10.15;100.00;96363.50;5029152;28;20214;-58
2022/09/26 02:11:01;;;;;;;8.43;7.60;;;;;;;10.16;100.00;96354.53;4980070;28;21289;-59
2022/09/26 02:13:32;;;;;;;7.70;7.10;;;;;;;10.23;100.00;96363.34;5028706;28;20762;-53
2022/09/26 02:16:06;;;;;;;8.30;7.60;;;;;;;10.17;100.00;96358.81;5024693;28;20675;-55
2022/09/26 02:18:38;;;;;;;8.10;7.50;;;;;;;10.23;100.00;96365.16;5008847;28;20223;-57
2022/09/26 02:21:09;;;;;;;7.13;6.60;;;;;;;10.17;100.00;96355.38;5001588;28;20316;-58
2022/09/26 02:23:37;;;;;;;7.60;7.00;;;;;;;10.15;100.00;96358.22;5030542;28;20646;-60
2022/09/26 02:26:06;;;;;;;8.90;8.20;;;;;;;10.03;100.00;96355.34;5029414;28;20234;-60
2022/09/26 02:28:34;;;;;;;9.17;8.37;;;;;;;10.01;100.00;96357.38;4973122;28;20212;-53
2022/09/26 02:31:07;;;;;;;9.07;8.47;;;;;;;10.03;100.00;96365.91;5024416;28;20550;-56
2022/09/26 02:33:35;;;;;;;9.23;8.53;;;;;;;9.95;100.00;96356.34;5003279;28;20208;-57
2022/09/26 02:36:07;;;;;;;10.87;9.80;;;;;;;9.93;100.00;96365.50;5005547;28;21072;-57
2022/09/26 02:38:36;;;;;;;10.37;9.40;;;;;;;9.88;100.00;96363.47;5024958;28;20211;-56
2022/09/26 02:41:15;;;;;;;9.97;8.47;;;;;;;9.87;100.00;96361.00;5027615;28;20326;-58
2022/09/26 02:44:02;;;;;;;10.23;9.33;;;;;;;9.82;100.00;96359.78;4970469;28;20649;-59
2022/09/26 02:46:42;;;;;;;9.40;8.70;;;;;;;9.81;100.00;96352.03;5032401;28;20218;-58
2022/09/26 02:49:24;;;;;;;10.47;9.50;;;;;;;9.76;100.00;96354.47;5006403;28;22440;-54
2022/09/26 02:52:09;;;;;;;9.67;8.87;;;;;;;9.71;100.00;96352.44;5008239;28;20214;-63
2022/09/26 02:54:45;;;;;;;9.03;8.30;;;;;;;9.68;100.00;96358.91;5031879;28;20233;-59
2022/09/26 02:57:21;;;;;;;8.93;8.13;;;;;;;9.71;100.00;96360.38;5026280;28;22205;-62
2022/09/26 02:59:56;;;;;;;8.80;8.10;;;;;;;9.70;100.00;96359.53;4968230;28;20310;-60
2022/09/26 03:02:31;;;;;;;8.60;7.97;;;;;;;9.67;100.00;96356.50;4974710;28;20215;-61
2022/09/26 03:05:03;;;;;;;7.73;7.10;;;;;;;9.67;100.00;96357.28;5025759;28;20288;-58
2022/09/26 03:07:35;;;;;;;7.37;6.87;;;;;;;9.63;100.00;96355.22;5008098;28;20325;-59
2022/09/26 03:10:06;;;;;;;8.10;7.33;;;;;;;9.56;100.00;96353.38;4999816;28;20328;-61
2022/09/26 03:12:35;;;;;;;7.80;6.97;;;;;;;9.52;100.00;96354.00;5002674;28;20282;-63
2022/09/26 03:15:06;;;;;;;8.30;7.50;;;;;;;9.52;100.00;96354.00;4995256;28;20326;-60
2022/09/26 03:17:37;;;;;;;8.97;7.10;;;;;;;9.50;100.00;96353.38;4970041;28;20310;-62
2022/09/26 03:20:09;;;;;;;8.57;7.80;;;;;;;9.42;100.00;96351.72;5027994;28;20286;-61
2022/09/26 03:22:38;;;;;;;8.27;7.57;;;;;;;9.40;100.00;96343.16;4990220;28;20362;-59
2022/09/26 03:25:08;;;;;;;7.87;7.27;;;;;;;9.33;100.00;96348.41;5023866;28;20325;-59
2022/09/26 03:27:37;;;;;;;7.63;7.03;;;;;;;9.32;100.00;96349.41;5019758;28;20310;-60
2022/09/26 03:30:06;;;;;;;7.47;6.87;;;;;;;9.25;100.00;96344.09;5002947;28;20310;-57
2022/09/26 03:32:37;;;;;;;6.90;6.30;;;;;;;9.28;100.00;96342.91;4964795;28;20220;-63
2022/09/26 03:35:06;;;;;;;7.10;6.60;;;;;;;9.26;100.00;96351.00;5021227;28;20338;-58
2022/09/26 03:37:36;;;;;;;7.63;7.03;;;;;;;9.22;100.00;96347.13;5011480;28;20568;-61
2022/09/26 03:40:05;;;;;;;6.97;6.37;;;;;;;9.28;100.00;96345.53;5019169;28;20747;-59
2022/09/26 03:42:33;;;;;;;6.87;6.20;;;;;;;9.20;100.00;96346.50;5023287;28;20759;-61
2022/09/26 03:45:02;;;;;;;7.07;6.40;;;;;;;9.14;100.00;96342.00;5026133;28;20259;-62
2022/09/26 03:47:31;;;;;;;6.53;5.93;;;;;;;9.03;100.00;96324.88;4947472;28;20291;-62
2022/09/26 03:50:01;;;;;;;7.33;6.50;;;;;;;9.09;100.00;96347.06;5019684;28;20196;-57
2022/09/26 03:52:29;;;;;;;6.83;6.23;;;;;;;9.05;100.00;96345.84;5023921;28;20648;-61
2022/09/26 03:54:58;;;;;;;6.90;6.23;;;;;;;9.10;100.00;96338.97;5002189;28;20228;-59
2022/09/26 03:57:26;;;;;;;7.07;6.47;;;;;;;9.11;100.00;96334.47;5022722;28;20203;-59
2022/09/26 04:00:00;;;;;;;6.07;5.67;;;;;;;9.10;100.00;96338.97;5030285;28;21023;-54
2022/09/26 04:02:28;;;;;;;6.60;6.03;;;;;;;9.08;100.00;96342.78;4955468;28;20223;-60
2022/09/26 04:04:57;;;;;;;5.97;5.47;;;;;;;9.08;100.00;96340.94;5022446;28;21162;-56
2022/09/26 04:07:27;;;;;;;8.30;6.90;;;;;;;9.00;100.00;96319.19;5006389;28;20210;-60
2022/09/26 04:09:55;;;;;;;6.93;6.43;;;;;;;9.08;100.00;96333.03;5000829;28;20212;-59
2022/09/26 04:12:24;;;;;;;7.00;6.40;;;;;;;9.12;100.00;96328.19;5022037;28;20238;-60
2022/09/26 04:14:52;;;;;;;6.00;5.50;;;;;;;9.17;100.00;96328.41;5026956;28;20222;-59
2022/09/26 04:17:21;;;;;;;6.33;5.83;;;;;;;9.19;100.00;96328.22;4990745;28;20294;-62
2022/09/26 04:19:49;;;;;;;6.63;5.97;;;;;;;9.20;100.00;96325.38;4954010;28;22274;-62
2022/09/26 04:22:18;;;;;;;8.40;5.77;;;;;;;9.22;100.00;96325.19;5023088;28;20217;-59
2022/09/26 04:24:47;;;;;;;7.17;6.47;;;;;;;9.18;100.00;96319.47;5000497;28;20667;-60
2022/09/26 04:27:16;;;;;;;6.87;6.13;;;;;;;9.19;100.00;96315.81;5027133;28;20207;-61
2022/09/26 04:29:44;;;;;;;7.57;5.27;;;;;;;9.22;100.00;96314.59;5026803;28;20871;-62
2022/09/26 04:32:12;;;;;;;6.10;5.50;;;;;;;9.25;100.00;96317.66;4989564;28;20286;-59
2022/09/26 04:34:41;;;;;;;6.33;5.83;;;;;;;9.24;100.00;96312.59;4945874;28;20286;-61
2022/09/26 04:37:10;;;;;;;5.60;5.20;;;;;;;9.26;100.00;96311.34;4998056;28;20238;-60
2022/09/26 04:39:39;;;;;;;5.77;5.37;;;;;;;9.30;100.00;96318.94;5027815;28;20560;-57
2022/09/26 04:42:08;;;;;;;5.40;5.00;;;;;;;9.24;100.00;96313.38;5003547;28;20215;-58
2022/09/26 04:44:36;;;;;;;5.83;5.23;;;;;;;9.31;100.00;96308.13;5022864;28;20314;-61
2022/09/26 04:47:05;;;;;;;8.57;6.07;;;;;;;9.34;100.00;96305.09;5022991;28;20222;-59
2022/09/26 04:49:33;;;;;;;6.93;5.93;;;;;;;9.32;100.00;96307.13;5002948;28;20231;-58
2022/09/26 04:52:02;;;;;;;5.87;5.37;;;;;;;9.28;100.00;96305.88;4963290;28;20298;-62
2022/09/26 04:54:30;;;;;;;6.20;5.63;;;;;;;9.27;100.00;96305.06;5013973;28;20226;-62
2022/09/26 04:57:00;;;;;;;7.57;5.43;;;;;;;9.28;100.00;96311.19;5002500;28;20207;-61
2022/09/26 04:59:29;;;;;;;8.10;5.80;;;;;;;9.27;100.00;96302.41;5021189;28;20261;-59
2022/09/26 05:01:57;;;;;;;6.37;5.87;;;;;;;9.30;100.00;96300.41;5022475;28;20214;-61
2022/09/26 05:04:26;;;;;;;6.10;5.53;;;;;;;9.30;100.00;96303.88;4999595;28;21030;-61
2022/09/26 05:06:58;;;;;;;6.97;6.03;;;;;;;9.37;100.00;96302.06;4968582;28;20220;-61
2022/09/26 05:09:26;;;;;;;6.47;5.67;;;;;;;9.43;100.00;96296.97;4935784;28;20752;-59
2022/09/26 05:11:58;;;;;;;6.37;5.63;;;;;;;9.40;100.00;96299.00;5023018;28;20214;-55
2022/09/26 05:14:26;;;;;;;6.33;5.93;;;;;;;9.38;100.00;96300.25;4976979;28;20670;-58
2022/09/26 05:16:56;;;;;;;7.37;6.77;;;;;;;9.35;100.00;96298.00;4993009;28;20212;-60
2022/09/26 05:19:25;;;;;;;5.43;5.03;;;;;;;9.43;100.00;96299.63;4991928;28;20217;-60
2022/09/26 05:21:54;;;;;;;7.57;6.40;;;;;;;9.38;100.00;96297.59;4998314;28;20594;-59
2022/09/26 05:27:08;;;;;;;6.00;5.50;;;;;;;9.54;100.00;96296.44;5001569;28;20628;-56
2022/09/26 05:29:36;;;;;;;6.67;5.67;;;;;;;9.56;100.00;96297.84;5000836;28;20236;-59
2022/09/26 05:32:06;;;;;;;6.93;6.23;;;;;;;9.57;100.00;96298.66;5017673;28;20419;-56
2022/09/26 05:34:34;;;;;;;8.07;6.60;;;;;;;9.58;100.00;96302.13;5013178;28;20219;-57
2022/09/26 05:37:02;;;;;;;6.10;5.60;;;;;;;9.56;100.00;96292.56;5004079;28;20215;-55
2022/09/26 05:42:16;;;;;;;5.73;5.23;;;;;;;9.55;100.00;96288.28;5004184;28;21920;-55
2022/09/26 05:44:44;;;;;;;6.00;5.50;;;;;;;9.55;100.00;96283.00;5011307;28;20232;-57
2022/09/26 05:47:14;;;;;;;6.63;6.03;;;;;;;9.59;100.00;96285.22;5026502;28;20502;-60
2022/09/26 05:49:42;;;;;;;6.73;5.77;;;;;;;9.67;100.00;96282.44;5008731;28;20526;-60
2022/09/26 05:52:11;;;;;;;7.80;6.23;;;;;;;9.65;100.00;96279.13;5006997;28;20215;-60
2022/09/26 05:54:39;;;;;;;6.67;6.07;;;;;;;9.66;100.00;96275.47;4983290;28;20239;-59
2022/09/26 05:57:07;;;;;;;7.67;5.80;;;;;;;9.68;100.00;96290.16;5010095;28;21011;-61
2022/09/26 05:59:35;;;;;;;6.27;5.77;;;;;;;9.61;100.00;96291.13;5011445;28;20220;-61
2022/09/26 06:02:05;;;;;;;6.37;5.80;;;;;;;9.53;100.00;96292.16;5022714;28;21589;-57
2022/09/26 06:04:35;;;;;;;5.77;5.27;;;;;;;9.57;100.00;96296.03;5029173;28;20224;-58
2022/09/26 06:07:03;;;;;;;8.77;6.18;;;;;;;9.60;100.00;96298.28;4984639;28;21114;-57
2022/09/26 06:09:31;;;;;;;7.03;6.50;;;;;;;9.64;100.00;96302.16;4979216;28;20702;-55
2022/09/26 06:11:59;;;;;;;7.23;6.60;;;;;;;9.76;100.00;96298.91;5025975;28;20224;-57
2022/09/26 06:14:28;;;;;;;6.27;5.80;;;;;;;9.80;100.00;96302.78;5010770;28;20614;-61
2022/09/26 06:16:56;;;;;;;6.77;5.90;;;;;;;9.87;100.00;96308.91;5011859;28;20826;-57
2022/09/26 06:19:24;;;;;;;6.53;5.77;;;;;;;9.91;100.00;96304.84;5030635;28;20200;-60
2022/09/26 06:21:54;;;;;;;9.27;5.90;;;;;;;10.07;100.00;96308.94;5002184;28;20218;-62
2022/09/26 06:24:22;;;;;;;6.20;5.80;;;;;;;10.19;100.00;96301.19;4977659;28;20234;-56
2022/09/26 06:26:50;;;;;;;6.57;6.07;;;;;;;10.34;100.00;96297.53;5023337;28;20231;-58
2022/09/26 06:29:19;;;;;;;6.27;5.63;;;;;;;10.37;100.00;96294.50;5010618;28;20604;-59
2022/09/26 06:31:47;;;;;;;9.80;8.37;;;;;;;10.32;100.00;96289.00;5011275;28;20208;-60
2022/09/26 06:34:15;;;;;;;6.47;5.87;;;;;;;10.14;100.00;96290.41;5026103;28;20406;-56
2022/09/26 06:36:45;;;;;;;6.00;5.60;;;;;;;9.96;100.00;96291.00;5011804;28;20758;-60
2022/09/26 06:39:15;;;;;;;5.37;4.97;;;;;;;9.86;100.00;96286.13;5013005;28;20487;-57
2022/09/26 06:41:44;;;;;;;5.83;5.23;;;;;;;9.76;100.00;96286.50;4976126;28;20207;-57
2022/09/26 06:44:12;;;;;;;5.63;5.17;;;;;;;9.69;100.00;96289.13;5026380;28;20325;-57
2022/09/26 06:46:40;;;;;;;5.80;5.40;;;;;;;9.61;100.00;96291.97;5011515;28;20227;-57
2022/09/26 06:49:09;;;;;;;6.33;5.80;;;;;;;9.40;100.00;96290.28;5027222;28;21009;-59
2022/09/26 06:51:37;;;;;;;7.33;6.10;;;;;;;9.35;100.00;96280.28;5027085;28;20212;-59
2022/09/26 06:54:06;;;;;;;5.90;5.40;;;;;;;9.54;100.00;96281.34;4984210;28;20392;-53
2022/09/26 06:56:35;;;;;;;6.60;6.10;;;;;;;9.63;100.00;96278.53;4981242;28;20212;-53
2022/09/26 06:59:03;;;;;;;6.80;6.17;;;;;;;9.77;100.00;96274.91;5019278;28;20204;-62
2022/09/26 07:01:31;;;;;;;6.63;6.03;;;;;;;10.27;100.00;96281.66;5013796;28;20219;-60
2022/09/26 07:04:00;;;;;;;6.47;5.63;;;;;;;10.36;100.00;96285.72;5022263;28;20299;-60
2022/09/26 07:06:28;;;;;;;6.50;5.90;;;;;;;10.68;100.00;96282.47;5025126;28;20223;-60
2022/09/26 07:08:56;;;;;;;6.13;5.53;;;;;;;10.76;100.00;96281.41;4987757;28;20682;-57
2022/09/26 07:11:46;;;;;;;5.73;5.10;;;;;;;10.75;100.00;96266.53;4977010;28;20242;-57
2022/09/26 07:14:36;;;;;;;4.80;4.40;;;;;;;11.19;100.00;96262.34;4966656;28;20922;-60
2022/09/26 07:17:04;;;;;;;5.13;4.20;;;;;;;11.00;100.00;96270.16;5007848;28;20733;-62
2022/09/26 07:19:32;;;;;;;5.40;4.83;;;;;;;11.06;100.00;96267.69;4997049;28;20214;-53
2022/09/26 07:22:01;;;;;;;7.03;5.00;;;;;;;10.85;100.00;96272.25;5007588;28;20204;-58
2022/09/26 07:24:29;;;;;;;7.13;4.33;;;;;;;10.97;100.00;96273.22;5025768;28;20230;-60
2022/09/26 07:27:00;;;;;;;4.83;4.43;;;;;;;11.22;100.00;96272.53;4991161;28;20576;-59
2022/09/26 07:29:28;;;;;;;6.53;4.63;;;;;;;11.65;100.00;96270.28;5027959;28;20208;-62
2022/09/26 07:31:56;;;;;;;5.20;4.13;;;;;;;11.35;100.00;96278.78;4947154;28;20219;-58
2022/09/26 07:34:26;;;;;;;4.47;4.07;;;;;;;11.17;100.00;96271.53;5026546;28;20224;-61
2022/09/26 07:36:54;;;;;;;5.73;4.80;;;;;;;11.07;100.00;96274.59;5003981;28;20223;-59
2022/09/26 07:39:22;;;;;;;5.23;4.13;;;;;;;11.19;100.00;96274.78;5028121;28;20281;-59
2022/09/26 07:41:51;;;;;;;7.13;4.50;;;;;;;11.37;100.00;96282.03;5004746;28;20481;-60
2022/09/26 07:44:20;;;;;;;6.00;5.27;;;;;;;11.60;100.00;96272.75;5023677;28;20232;-55
2022/09/26 07:50:13;;;;;;;4.03;3.63;;;;;;;11.08;100.00;96260.31;5022191;28;20277;-57
2022/09/26 07:52:43;;;;;;;5.47;3.50;;;;;;;10.90;100.00;96266.31;5017220;28;20682;-59
2022/09/26 07:55:14;;;;;;;4.67;4.27;;;;;;;10.90;100.00;96275.06;5020689;28;20277;-57
2022/09/26 07:57:42;;;;;;;5.47;4.00;;;;;;;11.16;100.00;96276.00;5020642;28;20594;-58
2022/09/26 08:00:15;;;;;;;5.07;3.93;;;;;;;11.34;100.00;96271.84;5024286;28;20554;-55
2022/09/26 08:02:45;;;;;;;4.67;3.90;;;;;;;12.18;97.27;96276.25;4971772;28;20298;-60
2022/09/26 08:05:18;;;;;;;7.07;3.73;;;;;;;12.24;93.23;96281.53;5022896;28;20740;-59
2022/09/26 08:07:47;;;;;;;4.07;2.80;;;;;;;12.31;88.90;96278.81;5021590;28;20259;-59
2022/09/26 08:10:18;;;;;;;6.50;3.90;;;;;;;12.47;89.97;96284.63;5005517;28;20203;-58
2022/09/26 08:12:47;;;;;;;4.57;3.83;;;;;;;12.52;87.18;96277.63;5022736;28;20204;-58
2022/09/26 08:15:17;;;;;;;9.07;3.50;;;;;;;12.72;87.01;96273.94;4997635;28;20261;-59
2022/09/26 08:17:46;;;;;;;6.07;3.13;;;;;;;12.96;85.34;96274.91;4977036;28;20218;-59
2022/09/26 08:20:14;;;;;;;4.73;3.10;;;;;;;12.85;85.24;96273.00;5025504;28;20249;-61
2022/09/26 08:22:42;;;;;;;4.03;3.40;;;;;;;12.49;86.94;96277.25;5009558;28;20525;-59
2022/09/26 08:25:11;;;;;;;3.27;2.97;;;;;;;12.15;85.87;96274.88;5005322;28;20231;-55
2022/09/26 08:27:42;;;;;;;3.97;3.00;;;;;;;12.78;81.98;96272.25;5024614;28;20318;-58
2022/09/26 08:30:12;;;;;;;7.50;3.50;;;;;;;13.12;80.40;96264.75;5025771;28;20843;-56
2022/09/26 08:32:43;;;;;;;3.63;3.00;;;;;;;13.19;78.07;96252.16;4998783;28;20203;-62
2022/09/26 08:35:14;;;;;;;3.87;3.13;;;;;;;13.42;76.55;96255.97;5015390;28;20259;-61
2022/09/26 08:37:43;;;;;;;3.57;3.27;;;;;;;12.71;78.48;96251.06;5007515;28;20207;-56
2022/09/26 08:40:12;;;;;;;7.33;3.20;;;;;;;12.25;81.71;96259.25;5004753;28;20580;-58
2022/09/26 08:42:46;;;;;;;3.77;3.17;;;;;;;12.87;81.81;96255.78;5022291;28;20207;-58
2022/09/26 08:48:26;;;;;;;2.63;2.43;;;;;;;13.55;76.60;96242.53;5022359;28;20723;-56
2022/09/26 08:50:58;;;;;;;3.10;2.80;;;;;;;13.85;74.12;96241.69;4973780;28;20214;-59
2022/09/26 08:53:30;;;;;;;3.10;2.40;;;;;;;13.59;72.70;96230.38;5008916;28;20234;-58
2022/09/26 08:56:01;;;;;;;4.27;2.53;;;;;;;14.03;73.93;96239.97;5005143;28;20421;-61
2022/09/26 08:58:37;;;;;;;2.80;2.60;;;;;;;13.82;71.65;96230.69;5027967;28;22421;-55
2022/09/26 09:01:12;;;;;;;4.37;3.27;;;;;;;14.16;70.30;96234.44;5026492;28;20402;-60
2022/09/26 09:03:48;;;;;;;2.90;2.57;;;;;;;14.48;67.41;96230.63;5001310;28;20242;-60
2022/09/26 09:06:17;;;;;;;2.83;2.20;;;;;;;14.73;68.19;96240.25;5020034;28;20219;-57
2022/09/26 09:08:48;;;;;;;3.27;2.83;;;;;;;14.25;68.80;96231.44;4984906;28;20645;-60
2022/09/26 09:11:21;;;;;;;7.70;2.60;;;;;;;14.33;69.10;96236.44;5010487;28;20215;-60
2022/09/26 09:13:59;;;;;;;3.37;2.40;;;;;;;14.24;69.83;96229.81;5027057;28;20312;-60
2022/09/26 09:16:39;;;;;;;4.03;2.50;;;;;;;14.20;69.09;96210.81;5030933;28;20258;-59
2022/09/26 09:19:14;;;;;;;3.07;2.70;;;;;;;14.08;69.97;96220.66;5020093;28;20481;-54
2022/09/26 09:22:02;;;;;;;2.60;2.33;;;;;;;13.76;69.78;96227.06;4924751;28;20451;-57
2022/09/26 09:24:44;;;;;;;2.63;2.23;;;;;;;13.50;70.30;96222.94;5017660;28;20792;-58
2022/09/26 09:27:19;;;;;;;2.53;2.30;;;;;;;13.21;71.15;96228.81;5008002;28;20481;-55
2022/09/26 09:30:14;;;;;;;4.77;2.50;;;;;;;13.10;69.97;96222.41;5029335;28;20698;-56
2022/09/26 09:32:49;;;;;;;3.90;2.40;;;;;;;12.82;70.80;96222.94;5027792;28;20215;-55
2022/09/26 09:35:21;;;;;;;6.33;2.90;;;;;;;12.71;73.74;96213.84;5009724;28;20228;-58
2022/09/26 09:37:51;;;;;;;4.40;2.47;;;;;;;12.76;72.81;96215.88;4974838;28;20365;-59
2022/09/26 09:40:26;;;;;;;2.90;2.50;;;;;;;12.49;73.09;96222.25;5026001;28;20377;-62
2022/09/26 09:42:58;;;;;;;4.70;2.43;;;;;;;12.38;74.27;96220.31;5029166;28;20667;-59
2022/09/26 09:45:30;;;;;;;4.23;2.50;;;;;;;12.37;74.16;96214.22;5016970;28;20400;-56
2022/09/26 09:47:59;;;;;;;5.60;2.20;;;;;;;13.01;70.35;96205.13;5024492;28;20259;-58
2022/09/26 09:50:35;;;;;;;3.40;1.77;;;;;;;13.25;67.93;96211.38;5022057;28;20758;-56
2022/09/26 09:53:13;;;;;;;2.10;1.90;;;;;;;12.77;69.18;96202.34;4980958;28;20316;-58
2022/09/26 09:55:48;;;;;;;3.57;2.43;;;;;;;12.76;71.01;96202.56;5025698;28;20224;-61
2022/09/26 09:58:30;;;;;;;5.57;2.40;;;;;;;13.10;68.43;96197.66;5011293;28;20698;-58
2022/09/26 10:01:07;;;;;;;2.73;2.03;;;;;;;13.62;67.62;96191.03;5023603;28;20207;-58
2022/09/26 10:03:40;;;;;;;5.33;2.97;;;;;;;14.13;66.16;96186.94;5026630;28;20199;-56
2022/09/26 10:06:12;;;;;;;3.90;2.30;;;;;;;14.89;64.64;96178.22;5007041;28;20310;-60
2022/09/26 10:09:04;;;;;;;2.00;1.80;;;;;;;15.40;63.51;96182.88;4969246;28;20216;-60
2022/09/26 10:11:54;;;;;;;2.03;1.70;;;;;;;15.99;62.15;96180.94;5027795;28;20345;-60
2022/09/26 10:14:28;;;;;;;2.33;2.13;;;;;;;16.07;58.42;96180.53;5012275;28;20923;-59
2022/09/26 10:17:14;;;;;;;2.53;1.60;;;;;;;16.27;57.70;96179.25;5027288;28;20236;-58
2022/09/26 10:19:43;;;;;;;1.90;1.80;;;;;;;15.85;58.23;96167.06;5013609;28;20293;-60
2022/09/26 10:22:23;;;;;;;2.40;2.20;;;;;;;15.85;58.96;96180.44;5020979;28;20231;-56
2022/09/26 10:24:53;;;;;;;4.63;2.20;;;;;;;15.62;58.72;96174.19;4975179;28;20338;-60
2022/09/26 10:27:34;;;;;;;2.57;1.60;;;;;;;15.50;60.28;96163.56;5021808;28;20207;-59
2022/09/26 10:30:06;;;;;;;3.00;1.43;;;;;;;15.45;60.52;96158.16;5020636;28;20289;-61
2022/09/26 10:32:44;;;;;;;1.60;1.50;;;;;;;15.46;60.77;96165.13;5023488;28;20204;-61
2022/09/26 10:35:18;;;;;;;3.63;1.87;;;;;;;15.66;60.33;96172.66;5008890;28;20241;-59
2022/09/26 10:37:51;;;;;;;2.23;2.03;;;;;;;16.24;60.61;96169.03;5027089;28;20196;-57
2022/09/26 10:43:27;;;;;;;2.63;2.20;;;;;;;16.65;58.17;96166.94;5015241;28;20891;-61
2022/09/26 10:46:01;;;;;;;1.83;1.73;;;;;;;16.59;58.09;96165.25;4997039;28;22162;-56
2022/09/26 10:48:46;;;;;;;2.67;1.80;;;;;;;16.53;56.63;96169.72;5018113;28;20293;-58
2022/09/26 10:51:22;;;;;;;2.03;1.83;;;;;;;16.20;55.40;96163.38;5007057;28;20303;-60
2022/09/26 10:53:56;;;;;;;1.50;1.40;;;;;;;16.28;57.33;96167.50;4974616;28;20207;-57
2022/09/26 10:56:27;;;;;;;2.40;1.57;;;;;;;16.19;57.42;96159.91;5018365;28;20699;-58
2022/09/26 10:58:58;;;;;;;2.67;1.50;;;;;;;15.63;58.18;96149.91;5018309;28;20380;-57
2022/09/26 11:01:30;;;;;;;4.50;1.77;;;;;;;15.39;59.76;96143.09;5024082;28;20228;-57
2022/09/26 11:04:12;;;;;;;5.50;2.20;;;;;;;15.38;59.95;96146.81;5005420;28;20798;-63
2022/09/26 11:06:42;;;;;;;1.93;1.70;;;;;;;15.24;60.21;96141.78;5003427;28;20212;-58
2022/09/26 11:09:19;;;;;;;3.00;1.57;;;;;;;15.16;60.61;96142.16;4980233;28;20323;-55
2022/09/26 11:11:49;;;;;;;2.00;1.87;;;;;;;14.86;61.14;96144.03;5020068;28;20729;-58
2022/09/26 11:14:24;;;;;;;2.70;1.70;;;;;;;14.45;62.90;96132.50;5022884;28;20295;-59
2022/09/26 11:16:57;;;;;;;3.83;1.97;;;;;;;14.37;63.06;96127.50;4998384;28;21130;-59
2022/09/26 11:19:33;;;;;;;1.87;1.73;;;;;;;14.65;62.49;96118.78;5023524;28;20643;-58
2022/09/26 11:22:06;;;;;;;1.43;1.30;;;;;;;14.86;61.58;96125.34;5010508;28;20298;-61
2022/09/26 11:24:45;;;;;;;3.20;1.90;;;;;;;14.86;62.69;96108.53;4980264;28;20253;-59
2022/09/26 11:27:22;;;;;;;3.10;1.70;;;;;;;15.17;61.94;96117.09;5020917;28;20303;-60
2022/09/26 11:29:54;;;;;;;4.60;2.43;;;;;;;15.14;59.44;96120.25;4940565;28;20223;-51
2022/09/26 11:32:27;;;;;;;2.67;2.20;;;;;;;15.01;59.76;96116.00;5023423;28;20747;-58
2022/09/26 11:35:00;;;;;;;2.00;1.80;;;;;;;15.04;60.58;96108.34;5003081;28;20222;-57
2022/09/26 11:37:35;;;;;;;1.80;1.70;;;;;;;15.08;60.42;96106.00;5019319;28;20763;-55
2022/09/26 11:40:19;;;;;;;1.80;1.60;;;;;;;15.56;61.02;96098.53;5023808;28;20281;-56
2022/09/26 11:42:58;;;;;;;2.83;1.90;;;;;;;15.74;58.50;96086.00;5025633;28;20235;-61
2022/09/26 11:45:34;;;;;;;1.63;1.53;;;;;;;15.51;59.17;96084.28;4998903;28;20395;-60
2022/09/26 11:48:21;;;;;;;2.27;1.50;;;;;;;15.32;60.70;96072.00;4994058;28;20320;-58
2022/09/26 11:50:56;;;;;;;1.90;1.73;;;;;;;15.22;60.36;96068.38;4994673;28;20774;-59
2022/09/26 11:54:00;;;;;;;3.57;2.53;;;;;;;15.48;61.72;96064.25;5007065;28;20211;-58
2022/09/26 11:56:45;;;;;;;2.10;1.90;;;;;;;15.42;60.18;96054.56;5017469;28;20426;-58
2022/09/26 11:59:27;;;;;;;2.07;1.80;;;;;;;15.78;60.93;96053.22;4978461;28;20231;-57
2022/09/26 12:02:14;;;;;;;2.20;2.00;;;;;;;15.98;59.50;96048.44;5019565;28;20294;-60
2022/09/26 12:04:53;;;;;;;4.60;2.37;;;;;;;15.76;57.34;96049.97;5027816;28;20233;-57
2022/09/26 12:07:29;;;;;;;3.63;1.80;;;;;;;15.99;56.25;96052.72;4978469;28;20303;-58
2022/09/26 12:10:11;;;;;;;1.40;1.40;;;;;;;16.29;55.92;96049.66;5003844;28;20223;-58
2022/09/26 12:12:43;;;;;;;2.83;1.87;;;;;;;16.66;55.98;96042.03;5024306;28;20290;-61
2022/09/26 12:15:19;;;;;;;1.57;1.47;;;;;;;16.75;53.73;96046.69;4974835;28;20370;-61